sensor_id;sensor_type;location;lat;lon;timestamp;temperature;humidity
35970;DHT22;22448;51.298;6.430;2023-08-07T00:02:08;12.70;99.90
35970;DHT22;22448;51.298;6.430;2023-08-07T00:04:35;12.70;99.90
35970;DHT22;22448;51.298;6.430;2023-08-07T00:07:02;12.70;99.90
35970;DHT22;22448;51.298;6.430;2023-08-07T00:09:30;12.70;99.90
35970;DHT22;22448;51.298;6.430;2023-08-07T00:11:57;12.70;99.90
35970;DHT22;22448;51.298;6.430;2023-08-07T00:14:24;12.70;99.90
35970;DHT22;22448;51.298;6.430;2023-08-07T00:16:51;12.70;99.90
35970;DHT22;22448;51.298;6.430;2023-08-07T00:19:18;12.70;99.90
35970;DHT22;22448;51.298;6.430;2023-08-07T00:21:45;12.70;99.90
35970;DHT22;22448;51.298;6.430;2023-08-07T00:24:12;12.60;99.90
35970;DHT22;22448;51.298;6.430;2023-08-07T00:26:39;12.70;99.90
35970;DHT22;22448;51.298;6.430;2023-08-07T00:29:06;12.70;99.90
35970;DHT22;22448;51.298;6.430;2023-08-07T00:31:33;12.70;99.90
35970;DHT22;22448;51.298;6.430;2023-08-07T00:34:01;12.70;99.90
35970;DHT22;22448;51.298;6.430;2023-08-07T00:36:29;12.70;99.90
35970;DHT22;22448;51.298;6.430;2023-08-07T00:38:58;12.70;99.90
35970;DHT22;22448;51.298;6.430;2023-08-07T00:41:25;12.70;99.90
35970;DHT22;22448;51.298;6.430;2023-08-07T00:43:52;12.60;99.90
35970;DHT22;22448;51.298;6.430;2023-08-07T00:46:20;12.60;99.90
35970;DHT22;22448;51.298;6.430;2023-08-07T00:48:48;12.60;99.90
35970;DHT22;22448;51.298;6.430;2023-08-07T00:51:15;12.60;99.90
35970;DHT22;22448;51.298;6.430;2023-08-07T00:53:43;12.70;99.90
35970;DHT22;22448;51.298;6.430;2023-08-07T00:56:10;12.70;99.90
35970;DHT22;22448;51.298;6.430;2023-08-07T00:58:37;12.60;99.90
35970;DHT22;22448;51.298;6.430;2023-08-07T01:01:05;12.60;99.90
35970;DHT22;22448;51.298;6.430;2023-08-07T01:03:33;12.60;99.90
35970;DHT22;22448;51.298;6.430;2023-08-07T01:06:01;12.70;99.90
35970;DHT22;22448;51.298;6.430;2023-08-07T01:08:28;12.70;99.90
35970;DHT22;22448;51.298;6.430;2023-08-07T01:11:07;12.70;99.90
35970;DHT22;22448;51.298;6.430;2023-08-07T01:14:13;12.60;99.90
35970;DHT22;22448;51.298;6.430;2023-08-07T01:17:09;12.60;99.90
35970;DHT22;22448;51.298;6.430;2023-08-07T01:19:37;12.60;99.90
35970;DHT22;22448;51.298;6.430;2023-08-07T01:22:16;12.60;99.90
35970;DHT22;22448;51.298;6.430;2023-08-07T01:24:48;12.70;99.90
35970;DHT22;22448;51.298;6.430;2023-08-07T01:35:32;12.70;99.90
35970;DHT22;22448;51.298;6.430;2023-08-07T01:38:02;12.70;99.90
35970;DHT22;22448;51.298;6.430;2023-08-07T01:40:29;12.70;99.90
35970;DHT22;22448;51.298;6.430;2023-08-07T01:42:57;12.70;99.90
35970;DHT22;22448;51.298;6.430;2023-08-07T01:45:26;12.70;99.90
35970;DHT22;22448;51.298;6.430;2023-08-07T01:47:53;12.60;99.90
35970;DHT22;22448;51.298;6.430;2023-08-07T01:50:23;12.60;99.90
35970;DHT22;22448;51.298;6.430;2023-08-07T01:52:51;12.60;99.90
35970;DHT22;22448;51.298;6.430;2023-08-07T01:55:20;12.60;99.90
35970;DHT22;22448;51.298;6.430;2023-08-07T01:57:50;12.60;99.90
35970;DHT22;22448;51.298;6.430;2023-08-07T02:00:17;12.60;99.90
35970;DHT22;22448;51.298;6.430;2023-08-07T02:02:44;12.50;99.90
35970;DHT22;22448;51.298;6.430;2023-08-07T02:05:14;12.50;99.90
35970;DHT22;22448;51.298;6.430;2023-08-07T02:07:42;12.50;99.90
35970;DHT22;22448;51.298;6.430;2023-08-07T02:10:09;12.50;99.90
35970;DHT22;22448;51.298;6.430;2023-08-07T02:12:36;12.50;99.90
35970;DHT22;22448;51.298;6.430;2023-08-07T02:15:04;12.50;99.90
35970;DHT22;22448;51.298;6.430;2023-08-07T02:17:31;12.50;99.90
35970;DHT22;22448;51.298;6.430;2023-08-07T02:19:59;12.50;99.90
35970;DHT22;22448;51.298;6.430;2023-08-07T02:22:26;12.50;99.90
35970;DHT22;22448;51.298;6.430;2023-08-07T02:24:54;12.50;99.90
35970;DHT22;22448;51.298;6.430;2023-08-07T02:27:21;12.50;99.90
35970;DHT22;22448;51.298;6.430;2023-08-07T02:29:48;12.50;99.90
35970;DHT22;22448;51.298;6.430;2023-08-07T02:32:15;12.40;99.90
35970;DHT22;22448;51.298;6.430;2023-08-07T02:34:42;12.40;99.90
35970;DHT22;22448;51.298;6.430;2023-08-07T02:37:10;12.40;99.90
35970;DHT22;22448;51.298;6.430;2023-08-07T02:39:37;12.40;99.90
35970;DHT22;22448;51.298;6.430;2023-08-07T02:42:04;12.40;99.90
35970;DHT22;22448;51.298;6.430;2023-08-07T02:44:32;12.40;99.90
35970;DHT22;22448;51.298;6.430;2023-08-07T02:46:59;12.40;99.90
35970;DHT22;22448;51.298;6.430;2023-08-07T02:49:26;12.40;99.90
35970;DHT22;22448;51.298;6.430;2023-08-07T02:51:53;12.50;99.90
35970;DHT22;22448;51.298;6.430;2023-08-07T02:54:20;12.40;99.90
35970;DHT22;22448;51.298;6.430;2023-08-07T02:56:47;12.40;99.90
35970;DHT22;22448;51.298;6.430;2023-08-07T02:59:16;12.50;99.90
35970;DHT22;22448;51.298;6.430;2023-08-07T03:01:43;12.40;99.90
35970;DHT22;22448;51.298;6.430;2023-08-07T03:04:11;12.40;99.90
35970;DHT22;22448;51.298;6.430;2023-08-07T03:06:38;12.40;99.90
35970;DHT22;22448;51.298;6.430;2023-08-07T03:09:05;12.40;99.90
35970;DHT22;22448;51.298;6.430;2023-08-07T03:11:32;12.40;99.90
35970;DHT22;22448;51.298;6.430;2023-08-07T03:13:59;12.30;99.90
35970;DHT22;22448;51.298;6.430;2023-08-07T03:16:26;12.30;99.90
35970;DHT22;22448;51.298;6.430;2023-08-07T03:18:54;12.30;99.90
35970;DHT22;22448;51.298;6.430;2023-08-07T03:21:21;12.30;99.90
35970;DHT22;22448;51.298;6.430;2023-08-07T03:23:47;12.30;99.90
35970;DHT22;22448;51.298;6.430;2023-08-07T03:26:14;12.30;99.90
35970;DHT22;22448;51.298;6.430;2023-08-07T03:28:47;12.30;99.90
35970;DHT22;22448;51.298;6.430;2023-08-07T03:31:16;12.30;99.90
35970;DHT22;22448;51.298;6.430;2023-08-07T03:33:43;12.30;99.90
35970;DHT22;22448;51.298;6.430;2023-08-07T03:36:12;12.30;99.90
35970;DHT22;22448;51.298;6.430;2023-08-07T03:38:40;12.30;99.90
35970;DHT22;22448;51.298;6.430;2023-08-07T03:41:07;12.30;99.90
35970;DHT22;22448;51.298;6.430;2023-08-07T03:43:36;12.30;99.90
35970;DHT22;22448;51.298;6.430;2023-08-07T03:46:03;12.30;99.90
35970;DHT22;22448;51.298;6.430;2023-08-07T03:48:30;12.30;99.90
35970;DHT22;22448;51.298;6.430;2023-08-07T03:51:04;12.30;99.90
35970;DHT22;22448;51.298;6.430;2023-08-07T03:53:37;12.30;99.90
35970;DHT22;22448;51.298;6.430;2023-08-07T03:56:04;12.30;99.90
35970;DHT22;22448;51.298;6.430;2023-08-07T03:58:32;12.30;99.90
35970;DHT22;22448;51.298;6.430;2023-08-07T04:00:59;12.30;99.90
35970;DHT22;22448;51.298;6.430;2023-08-07T04:03:27;12.30;99.90
35970;DHT22;22448;51.298;6.430;2023-08-07T04:05:55;12.30;99.90
35970;DHT22;22448;51.298;6.430;2023-08-07T04:08:23;12.30;99.90
35970;DHT22;22448;51.298;6.430;2023-08-07T04:11:00;12.30;99.90
35970;DHT22;22448;51.298;6.430;2023-08-07T04:13:28;12.30;99.90
35970;DHT22;22448;51.298;6.430;2023-08-07T04:15:55;12.30;99.90
35970;DHT22;22448;51.298;6.430;2023-08-07T04:18:23;12.30;99.90
35970;DHT22;22448;51.298;6.430;2023-08-07T04:20:52;12.30;99.90
35970;DHT22;22448;51.298;6.430;2023-08-07T04:23:20;12.40;99.90
35970;DHT22;22448;51.298;6.430;2023-08-07T04:25:48;12.30;99.90
35970;DHT22;22448;51.298;6.430;2023-08-07T04:28:16;12.40;99.90
35970;DHT22;22448;51.298;6.430;2023-08-07T04:30:44;12.40;99.90
35970;DHT22;22448;51.298;6.430;2023-08-07T04:33:11;12.40;99.90
35970;DHT22;22448;51.298;6.430;2023-08-07T04:35:39;12.40;99.90
35970;DHT22;22448;51.298;6.430;2023-08-07T04:38:06;12.40;99.90
35970;DHT22;22448;51.298;6.430;2023-08-07T04:40:34;12.40;99.90
35970;DHT22;22448;51.298;6.430;2023-08-07T04:43:01;12.40;99.90
35970;DHT22;22448;51.298;6.430;2023-08-07T04:45:29;12.50;99.90
35970;DHT22;22448;51.298;6.430;2023-08-07T04:47:56;12.40;99.90
35970;DHT22;22448;51.298;6.430;2023-08-07T04:50:23;12.50;99.90
35970;DHT22;22448;51.298;6.430;2023-08-07T04:52:50;12.40;99.90
35970;DHT22;22448;51.298;6.430;2023-08-07T04:55:17;12.50;99.90
35970;DHT22;22448;51.298;6.430;2023-08-07T04:57:44;12.50;99.90
35970;DHT22;22448;51.298;6.430;2023-08-07T05:00:13;12.50;99.90
35970;DHT22;22448;51.298;6.430;2023-08-07T05:02:40;12.50;99.90
35970;DHT22;22448;51.298;6.430;2023-08-07T05:05:07;12.50;99.90
35970;DHT22;22448;51.298;6.430;2023-08-07T05:07:36;12.50;99.90
35970;DHT22;22448;51.298;6.430;2023-08-07T05:10:03;12.50;99.90
35970;DHT22;22448;51.298;6.430;2023-08-07T05:12:30;12.50;99.90
35970;DHT22;22448;51.298;6.430;2023-08-07T05:14:57;12.60;99.90
35970;DHT22;22448;51.298;6.430;2023-08-07T05:17:24;12.60;99.90
35970;DHT22;22448;51.298;6.430;2023-08-07T05:19:51;12.60;99.90
35970;DHT22;22448;51.298;6.430;2023-08-07T05:22:18;12.60;99.90
35970;DHT22;22448;51.298;6.430;2023-08-07T05:24:45;12.70;99.90
35970;DHT22;22448;51.298;6.430;2023-08-07T05:27:12;12.60;99.90
35970;DHT22;22448;51.298;6.430;2023-08-07T05:29:39;12.60;99.90
35970;DHT22;22448;51.298;6.430;2023-08-07T05:32:12;12.60;99.90
35970;DHT22;22448;51.298;6.430;2023-08-07T05:34:39;12.70;99.90
35970;DHT22;22448;51.298;6.430;2023-08-07T05:37:06;12.60;99.90
35970;DHT22;22448;51.298;6.430;2023-08-07T05:39:35;12.70;99.90
35970;DHT22;22448;51.298;6.430;2023-08-07T05:42:03;12.70;99.90
35970;DHT22;22448;51.298;6.430;2023-08-07T05:44:30;12.80;99.90
35970;DHT22;22448;51.298;6.430;2023-08-07T05:46:57;12.80;99.90
35970;DHT22;22448;51.298;6.430;2023-08-07T05:49:24;12.80;99.90
35970;DHT22;22448;51.298;6.430;2023-08-07T05:51:53;12.80;99.90
35970;DHT22;22448;51.298;6.430;2023-08-07T05:54:21;12.80;99.90
35970;DHT22;22448;51.298;6.430;2023-08-07T05:56:48;12.80;99.90
35970;DHT22;22448;51.298;6.430;2023-08-07T05:59:15;12.80;99.90
35970;DHT22;22448;51.298;6.430;2023-08-07T06:01:42;12.80;99.90
35970;DHT22;22448;51.298;6.430;2023-08-07T06:04:10;12.80;99.90
35970;DHT22;22448;51.298;6.430;2023-08-07T06:06:37;12.80;99.90
35970;DHT22;22448;51.298;6.430;2023-08-07T06:09:06;12.80;99.90
35970;DHT22;22448;51.298;6.430;2023-08-07T06:11:33;12.80;99.90
35970;DHT22;22448;51.298;6.430;2023-08-07T06:14:01;12.80;99.90
35970;DHT22;22448;51.298;6.430;2023-08-07T06:16:28;12.80;99.90
35970;DHT22;22448;51.298;6.430;2023-08-07T06:18:56;12.80;99.90
35970;DHT22;22448;51.298;6.430;2023-08-07T06:21:23;12.70;99.90
35970;DHT22;22448;51.298;6.430;2023-08-07T06:23:50;12.70;99.90
35970;DHT22;22448;51.298;6.430;2023-08-07T06:26:17;12.70;99.90
35970;DHT22;22448;51.298;6.430;2023-08-07T06:28:44;12.70;99.90
35970;DHT22;22448;51.298;6.430;2023-08-07T06:31:15;12.70;99.90
35970;DHT22;22448;51.298;6.430;2023-08-07T06:33:42;12.70;99.90
35970;DHT22;22448;51.298;6.430;2023-08-07T06:36:09;12.70;99.90
35970;DHT22;22448;51.298;6.430;2023-08-07T06:38:37;12.70;99.90
35970;DHT22;22448;51.298;6.430;2023-08-07T06:41:04;12.80;99.90
35970;DHT22;22448;51.298;6.430;2023-08-07T06:43:31;12.70;99.90
35970;DHT22;22448;51.298;6.430;2023-08-07T06:45:59;12.80;99.90
35970;DHT22;22448;51.298;6.430;2023-08-07T06:48:26;12.80;99.90
35970;DHT22;22448;51.298;6.430;2023-08-07T06:50:53;12.80;99.90
35970;DHT22;22448;51.298;6.430;2023-08-07T06:53:20;12.90;99.90
35970;DHT22;22448;51.298;6.430;2023-08-07T06:55:47;12.90;99.90
35970;DHT22;22448;51.298;6.430;2023-08-07T06:58:14;12.90;99.90
35970;DHT22;22448;51.298;6.430;2023-08-07T07:00:41;12.90;99.90
35970;DHT22;22448;51.298;6.430;2023-08-07T07:03:09;12.90;99.90
35970;DHT22;22448;51.298;6.430;2023-08-07T07:05:37;12.90;99.90
35970;DHT22;22448;51.298;6.430;2023-08-07T07:08:04;13.00;99.90
35970;DHT22;22448;51.298;6.430;2023-08-07T07:10:31;13.00;99.90
35970;DHT22;22448;51.298;6.430;2023-08-07T07:12:59;13.00;99.90
35970;DHT22;22448;51.298;6.430;2023-08-07T07:15:26;13.00;99.90
35970;DHT22;22448;51.298;6.430;2023-08-07T07:17:53;13.00;99.90
35970;DHT22;22448;51.298;6.430;2023-08-07T07:20:20;13.10;99.90
35970;DHT22;22448;51.298;6.430;2023-08-07T07:22:47;13.10;99.90
35970;DHT22;22448;51.298;6.430;2023-08-07T07:25:14;13.10;99.90
35970;DHT22;22448;51.298;6.430;2023-08-07T07:27:41;13.10;99.90
35970;DHT22;22448;51.298;6.430;2023-08-07T07:30:09;13.10;99.90
35970;DHT22;22448;51.298;6.430;2023-08-07T07:32:36;13.10;99.90
35970;DHT22;22448;51.298;6.430;2023-08-07T07:35:04;13.10;99.90
35970;DHT22;22448;51.298;6.430;2023-08-07T07:37:31;13.00;99.90
35970;DHT22;22448;51.298;6.430;2023-08-07T07:39:58;13.00;99.90
35970;DHT22;22448;51.298;6.430;2023-08-07T07:42:26;13.00;99.90
35970;DHT22;22448;51.298;6.430;2023-08-07T07:44:53;13.00;99.90
35970;DHT22;22448;51.298;6.430;2023-08-07T07:47:20;13.10;99.90
35970;DHT22;22448;51.298;6.430;2023-08-07T07:49:47;13.10;99.90
35970;DHT22;22448;51.298;6.430;2023-08-07T07:52:15;13.20;99.90
35970;DHT22;22448;51.298;6.430;2023-08-07T07:54:42;13.20;99.90
35970;DHT22;22448;51.298;6.430;2023-08-07T07:57:09;13.30;99.90
35970;DHT22;22448;51.298;6.430;2023-08-07T07:59:36;13.40;99.90
35970;DHT22;22448;51.298;6.430;2023-08-07T08:02:04;13.40;99.90
35970;DHT22;22448;51.298;6.430;2023-08-07T08:04:31;13.40;99.90
35970;DHT22;22448;51.298;6.430;2023-08-07T08:06:58;13.40;99.90
35970;DHT22;22448;51.298;6.430;2023-08-07T08:09:26;13.40;99.90
35970;DHT22;22448;51.298;6.430;2023-08-07T08:11:53;13.50;99.90
35970;DHT22;22448;51.298;6.430;2023-08-07T08:14:20;13.50;99.90
35970;DHT22;22448;51.298;6.430;2023-08-07T08:16:47;13.60;99.90
35970;DHT22;22448;51.298;6.430;2023-08-07T08:19:14;13.60;99.90
35970;DHT22;22448;51.298;6.430;2023-08-07T08:21:43;13.50;99.90
35970;DHT22;22448;51.298;6.430;2023-08-07T08:24:10;13.50;99.90
35970;DHT22;22448;51.298;6.430;2023-08-07T08:26:37;13.50;99.90
35970;DHT22;22448;51.298;6.430;2023-08-07T08:29:06;13.50;99.90
35970;DHT22;22448;51.298;6.430;2023-08-07T08:31:33;13.50;99.90
35970;DHT22;22448;51.298;6.430;2023-08-07T08:34:00;13.50;99.90
35970;DHT22;22448;51.298;6.430;2023-08-07T08:36:28;13.50;99.90
35970;DHT22;22448;51.298;6.430;2023-08-07T08:38:55;13.50;99.90
35970;DHT22;22448;51.298;6.430;2023-08-07T08:41:22;13.70;99.90
35970;DHT22;22448;51.298;6.430;2023-08-07T08:43:51;13.80;99.90
35970;DHT22;22448;51.298;6.430;2023-08-07T08:46:20;14.00;99.90
35970;DHT22;22448;51.298;6.430;2023-08-07T08:48:51;14.10;99.90
35970;DHT22;22448;51.298;6.430;2023-08-07T08:51:19;14.50;99.90
35970;DHT22;22448;51.298;6.430;2023-08-07T08:53:48;14.80;99.90
35970;DHT22;22448;51.298;6.430;2023-08-07T08:56:16;15.00;99.90
35970;DHT22;22448;51.298;6.430;2023-08-07T08:58:43;15.00;99.90
35970;DHT22;22448;51.298;6.430;2023-08-07T09:01:11;15.10;99.90
35970;DHT22;22448;51.298;6.430;2023-08-07T09:03:39;15.30;99.90
35970;DHT22;22448;51.298;6.430;2023-08-07T09:06:06;15.40;99.90
35970;DHT22;22448;51.298;6.430;2023-08-07T09:08:34;15.60;99.90
35970;DHT22;22448;51.298;6.430;2023-08-07T09:11:02;16.20;99.90
35970;DHT22;22448;51.298;6.430;2023-08-07T09:13:30;16.70;99.90
35970;DHT22;22448;51.298;6.430;2023-08-07T09:16:00;16.80;99.90
35970;DHT22;22448;51.298;6.430;2023-08-07T09:18:27;16.80;99.90
35970;DHT22;22448;51.298;6.430;2023-08-07T09:20:54;16.80;99.90
35970;DHT22;22448;51.298;6.430;2023-08-07T09:23:24;16.80;99.90
35970;DHT22;22448;51.298;6.430;2023-08-07T09:26:03;16.90;99.90
35970;DHT22;22448;51.298;6.430;2023-08-07T09:28:32;17.40;99.90
35970;DHT22;22448;51.298;6.430;2023-08-07T09:30:59;18.00;99.90
35970;DHT22;22448;51.298;6.430;2023-08-07T09:33:29;18.50;99.90
35970;DHT22;22448;51.298;6.430;2023-08-07T09:35:58;19.10;99.90
35970;DHT22;22448;51.298;6.430;2023-08-07T09:38:32;19.20;99.90
35970;DHT22;22448;51.298;6.430;2023-08-07T09:41:00;19.30;99.90
35970;DHT22;22448;51.298;6.430;2023-08-07T09:43:28;19.30;99.90
35970;DHT22;22448;51.298;6.430;2023-08-07T09:46:08;19.50;99.90
35970;DHT22;22448;51.298;6.430;2023-08-07T09:48:42;19.50;99.90
35970;DHT22;22448;51.298;6.430;2023-08-07T09:51:10;19.50;99.90
35970;DHT22;22448;51.298;6.430;2023-08-07T09:53:38;19.50;99.90
35970;DHT22;22448;51.298;6.430;2023-08-07T09:56:06;19.30;99.90
35970;DHT22;22448;51.298;6.430;2023-08-07T09:58:33;19.40;99.90
35970;DHT22;22448;51.298;6.430;2023-08-07T10:01:03;19.40;99.90
35970;DHT22;22448;51.298;6.430;2023-08-07T10:03:36;19.50;99.90
35970;DHT22;22448;51.298;6.430;2023-08-07T10:06:04;19.60;99.90
35970;DHT22;22448;51.298;6.430;2023-08-07T10:08:32;19.90;99.90
35970;DHT22;22448;51.298;6.430;2023-08-07T10:11:00;19.90;99.90
35970;DHT22;22448;51.298;6.430;2023-08-07T10:13:29;19.90;99.90
35970;DHT22;22448;51.298;6.430;2023-08-07T10:16:06;20.20;99.90
35970;DHT22;22448;51.298;6.430;2023-08-07T10:18:34;20.30;99.90
35970;DHT22;22448;51.298;6.430;2023-08-07T10:21:06;20.50;99.90
35970;DHT22;22448;51.298;6.430;2023-08-07T10:23:38;20.30;99.90
35970;DHT22;22448;51.298;6.430;2023-08-07T10:26:08;20.10;99.90
35970;DHT22;22448;51.298;6.430;2023-08-07T10:28:37;19.60;99.90
35970;DHT22;22448;51.298;6.430;2023-08-07T10:31:07;19.60;99.90
35970;DHT22;22448;51.298;6.430;2023-08-07T10:33:36;19.90;99.90
35970;DHT22;22448;51.298;6.430;2023-08-07T10:36:08;20.10;99.90
35970;DHT22;22448;51.298;6.430;2023-08-07T10:38:37;20.10;99.90
35970;DHT22;22448;51.298;6.430;2023-08-07T10:41:08;20.10;99.90
35970;DHT22;22448;51.298;6.430;2023-08-07T10:43:40;20.00;99.90
35970;DHT22;22448;51.298;6.430;2023-08-07T10:46:19;20.20;99.90
35970;DHT22;22448;51.298;6.430;2023-08-07T10:48:53;20.40;99.90
35970;DHT22;22448;51.298;6.430;2023-08-07T10:51:21;20.50;99.90
35970;DHT22;22448;51.298;6.430;2023-08-07T10:53:54;20.30;99.90
35970;DHT22;22448;51.298;6.430;2023-08-07T10:56:34;20.30;99.90
35970;DHT22;22448;51.298;6.430;2023-08-07T10:59:12;20.30;99.90
35970;DHT22;22448;51.298;6.430;2023-08-07T11:01:43;20.40;99.90
35970;DHT22;22448;51.298;6.430;2023-08-07T11:04:12;20.50;99.90
35970;DHT22;22448;51.298;6.430;2023-08-07T11:06:41;20.60;99.90
35970;DHT22;22448;51.298;6.430;2023-08-07T11:09:10;20.70;99.90
35970;DHT22;22448;51.298;6.430;2023-08-07T11:11:42;20.70;99.90
35970;DHT22;22448;51.298;6.430;2023-08-07T11:14:11;20.80;99.90
35970;DHT22;22448;51.298;6.430;2023-08-07T11:16:39;20.90;99.90
35970;DHT22;22448;51.298;6.430;2023-08-07T11:19:07;21.30;99.90
35970;DHT22;22448;51.298;6.430;2023-08-07T11:21:35;21.50;99.90
35970;DHT22;22448;51.298;6.430;2023-08-07T11:24:03;21.50;99.90
35970;DHT22;22448;51.298;6.430;2023-08-07T11:26:30;21.40;99.90
35970;DHT22;22448;51.298;6.430;2023-08-07T11:28:58;21.50;99.90
35970;DHT22;22448;51.298;6.430;2023-08-07T11:31:25;21.60;99.90
35970;DHT22;22448;51.298;6.430;2023-08-07T11:33:54;21.50;99.90
35970;DHT22;22448;51.298;6.430;2023-08-07T11:36:22;21.50;99.90
35970;DHT22;22448;51.298;6.430;2023-08-07T11:38:49;21.60;99.90
35970;DHT22;22448;51.298;6.430;2023-08-07T11:41:17;21.80;99.90
35970;DHT22;22448;51.298;6.430;2023-08-07T11:43:45;22.30;99.90
35970;DHT22;22448;51.298;6.430;2023-08-07T11:46:15;22.30;97.70
35970;DHT22;22448;51.298;6.430;2023-08-07T11:48:43;21.80;98.90
35970;DHT22;22448;51.298;6.430;2023-08-07T11:51:11;21.40;98.40
35970;DHT22;22448;51.298;6.430;2023-08-07T11:53:40;21.10;99.90
35970;DHT22;22448;51.298;6.430;2023-08-07T11:56:09;20.80;99.90
35970;DHT22;22448;51.298;6.430;2023-08-07T11:58:41;20.60;99.90
35970;DHT22;22448;51.298;6.430;2023-08-07T12:01:14;20.60;99.90
35970;DHT22;22448;51.298;6.430;2023-08-07T12:06:35;21.10;99.60
35970;DHT22;22448;51.298;6.430;2023-08-07T12:09:03;21.10;99.70
35970;DHT22;22448;51.298;6.430;2023-08-07T12:11:30;21.10;98.60
35970;DHT22;22448;51.298;6.430;2023-08-07T12:14:00;21.20;99.90
35970;DHT22;22448;51.298;6.430;2023-08-07T12:16:35;21.40;99.90
35970;DHT22;22448;51.298;6.430;2023-08-07T12:19:03;21.70;97.90
35970;DHT22;22448;51.298;6.430;2023-08-07T12:21:31;21.70;97.40
35970;DHT22;22448;51.298;6.430;2023-08-07T12:24:00;21.90;97.30
35970;DHT22;22448;51.298;6.430;2023-08-07T12:26:27;22.10;97.60
35970;DHT22;22448;51.298;6.430;2023-08-07T12:28:54;22.40;96.70
35970;DHT22;22448;51.298;6.430;2023-08-07T12:31:21;22.60;98.00
35970;DHT22;22448;51.298;6.430;2023-08-07T12:33:48;22.70;95.00
35970;DHT22;22448;51.298;6.430;2023-08-07T12:36:16;22.70;95.90
35970;DHT22;22448;51.298;6.430;2023-08-07T12:38:46;22.20;94.30
35970;DHT22;22448;51.298;6.430;2023-08-07T12:41:14;21.80;93.70
35970;DHT22;22448;51.298;6.430;2023-08-07T12:43:44;22.00;95.20
35970;DHT22;22448;51.298;6.430;2023-08-07T12:46:11;22.30;95.80
35970;DHT22;22448;51.298;6.430;2023-08-07T12:48:41;22.30;95.00
35970;DHT22;22448;51.298;6.430;2023-08-07T12:51:28;22.40;95.20
35970;DHT22;22448;51.298;6.430;2023-08-07T12:53:55;22.50;95.00
35970;DHT22;22448;51.298;6.430;2023-08-07T12:56:22;22.50;94.20
35970;DHT22;22448;51.298;6.430;2023-08-07T12:58:49;22.40;92.70
35970;DHT22;22448;51.298;6.430;2023-08-07T13:01:16;22.40;95.30
35970;DHT22;22448;51.298;6.430;2023-08-07T13:03:43;22.50;95.10
35970;DHT22;22448;51.298;6.430;2023-08-07T13:06:11;22.80;96.10
35970;DHT22;22448;51.298;6.430;2023-08-07T13:08:38;22.80;93.20
35970;DHT22;22448;51.298;6.430;2023-08-07T13:11:05;23.00;94.30
35970;DHT22;22448;51.298;6.430;2023-08-07T13:13:32;22.70;92.20
35970;DHT22;22448;51.298;6.430;2023-08-07T13:15:59;22.40;91.60
35970;DHT22;22448;51.298;6.430;2023-08-07T13:18:26;22.10;91.60
35970;DHT22;22448;51.298;6.430;2023-08-07T13:20:52;22.00;93.40
35970;DHT22;22448;51.298;6.430;2023-08-07T13:23:19;22.10;92.30
35970;DHT22;22448;51.298;6.430;2023-08-07T13:25:46;22.20;92.90
35970;DHT22;22448;51.298;6.430;2023-08-07T13:28:13;22.20;94.20
35970;DHT22;22448;51.298;6.430;2023-08-07T13:30:40;22.40;93.50
35970;DHT22;22448;51.298;6.430;2023-08-07T13:33:07;22.20;91.70
35970;DHT22;22448;51.298;6.430;2023-08-07T13:35:34;22.10;92.30
35970;DHT22;22448;51.298;6.430;2023-08-07T13:38:01;21.80;93.50
35970;DHT22;22448;51.298;6.430;2023-08-07T13:40:32;21.80;94.20
35970;DHT22;22448;51.298;6.430;2023-08-07T13:42:58;21.70;93.90
35970;DHT22;22448;51.298;6.430;2023-08-07T13:45:28;21.60;93.40
35970;DHT22;22448;51.298;6.430;2023-08-07T13:47:55;21.70;95.30
35970;DHT22;22448;51.298;6.430;2023-08-07T13:50:21;21.40;95.30
35970;DHT22;22448;51.298;6.430;2023-08-07T13:52:48;21.20;95.80
35970;DHT22;22448;51.298;6.430;2023-08-07T13:55:29;20.90;96.50
35970;DHT22;22448;51.298;6.430;2023-08-07T13:57:56;20.80;97.50
35970;DHT22;22448;51.298;6.430;2023-08-07T14:00:23;20.70;96.70
35970;DHT22;22448;51.298;6.430;2023-08-07T14:02:49;20.80;96.40
35970;DHT22;22448;51.298;6.430;2023-08-07T14:05:16;21.00;98.40
35970;DHT22;22448;51.298;6.430;2023-08-07T14:07:43;21.40;97.80
35970;DHT22;22448;51.298;6.430;2023-08-07T14:10:10;21.30;98.60
35970;DHT22;22448;51.298;6.430;2023-08-07T14:12:37;21.20;97.20
35970;DHT22;22448;51.298;6.430;2023-08-07T14:15:04;21.10;99.50
35970;DHT22;22448;51.298;6.430;2023-08-07T14:17:31;20.80;99.90
35970;DHT22;22448;51.298;6.430;2023-08-07T14:19:58;20.60;99.90
35970;DHT22;22448;51.298;6.430;2023-08-07T14:22:24;20.40;99.90
35970;DHT22;22448;51.298;6.430;2023-08-07T14:24:51;20.60;99.90
35970;DHT22;22448;51.298;6.430;2023-08-07T14:27:18;20.90;99.90
35970;DHT22;22448;51.298;6.430;2023-08-07T14:29:45;21.20;99.90
35970;DHT22;22448;51.298;6.430;2023-08-07T14:32:11;21.40;99.90
35970;DHT22;22448;51.298;6.430;2023-08-07T14:34:38;21.50;99.90
35970;DHT22;22448;51.298;6.430;2023-08-07T14:37:05;21.70;99.90
35970;DHT22;22448;51.298;6.430;2023-08-07T14:39:31;21.80;99.90
35970;DHT22;22448;51.298;6.430;2023-08-07T14:41:58;21.70;99.90
35970;DHT22;22448;51.298;6.430;2023-08-07T14:44:25;21.60;99.90
35970;DHT22;22448;51.298;6.430;2023-08-07T14:46:52;21.20;99.90
35970;DHT22;22448;51.298;6.430;2023-08-07T14:49:19;21.20;99.90
35970;DHT22;22448;51.298;6.430;2023-08-07T14:51:46;21.20;99.90
35970;DHT22;22448;51.298;6.430;2023-08-07T14:54:13;21.30;99.90
35970;DHT22;22448;51.298;6.430;2023-08-07T14:56:39;21.20;99.90
35970;DHT22;22448;51.298;6.430;2023-08-07T14:59:07;21.00;99.90
35970;DHT22;22448;51.298;6.430;2023-08-07T15:01:34;20.70;99.90
35970;DHT22;22448;51.298;6.430;2023-08-07T15:04:00;20.40;99.90
35970;DHT22;22448;51.298;6.430;2023-08-07T15:06:27;20.00;99.90
35970;DHT22;22448;51.298;6.430;2023-08-07T15:08:56;19.50;99.90
35970;DHT22;22448;51.298;6.430;2023-08-07T15:11:23;18.80;99.90
35970;DHT22;22448;51.298;6.430;2023-08-07T15:13:50;18.30;99.90
35970;DHT22;22448;51.298;6.430;2023-08-07T15:16:17;18.10;99.90
35970;DHT22;22448;51.298;6.430;2023-08-07T15:18:44;18.20;99.90
35970;DHT22;22448;51.298;6.430;2023-08-07T15:21:10;18.30;99.90
35970;DHT22;22448;51.298;6.430;2023-08-07T15:23:37;18.30;99.90
35970;DHT22;22448;51.298;6.430;2023-08-07T15:26:04;18.40;99.90
35970;DHT22;22448;51.298;6.430;2023-08-07T15:28:31;18.40;99.90
35970;DHT22;22448;51.298;6.430;2023-08-07T15:30:58;18.30;99.90
35970;DHT22;22448;51.298;6.430;2023-08-07T15:33:25;18.40;99.90
35970;DHT22;22448;51.298;6.430;2023-08-07T15:35:54;18.40;99.90
35970;DHT22;22448;51.298;6.430;2023-08-07T15:38:22;18.50;99.90
35970;DHT22;22448;51.298;6.430;2023-08-07T15:40:48;18.60;99.90
35970;DHT22;22448;51.298;6.430;2023-08-07T15:43:15;18.80;99.90
35970;DHT22;22448;51.298;6.430;2023-08-07T15:45:44;18.80;99.90
35970;DHT22;22448;51.298;6.430;2023-08-07T15:48:12;18.70;99.90